sensor_id;sensor_type;location;lat;lon;timestamp;pressure;altitude;pressure_sealevel;temperature;humidity
50790;BME280;37287;47.554;7.844;2024-02-14T00:00:07;98453.09;;;2.96;100.00
50790;BME280;37287;47.554;7.844;2024-02-14T00:02:41;98450.09;;;2.98;100.00
50790;BME280;37287;47.554;7.844;2024-02-14T00:05:10;98450.56;;;3.00;100.00
50790;BME280;37287;47.554;7.844;2024-02-14T00:07:37;98453.25;;;3.00;100.00
50790;BME280;37287;47.554;7.844;2024-02-14T00:10:06;98449.31;;;2.97;100.00
50790;BME280;37287;47.554;7.844;2024-02-14T00:12:33;98444.09;;;2.83;100.00
50790;BME280;37287;47.554;7.844;2024-02-14T00:15:05;98446.56;;;2.71;100.00
50790;BME280;37287;47.554;7.844;2024-02-14T00:17:35;98450.47;;;2.65;100.00
50790;BME280;37287;47.554;7.844;2024-02-14T00:20:03;98459.13;;;2.62;100.00
50790;BME280;37287;47.554;7.844;2024-02-14T00:22:31;98459.63;;;2.72;100.00
50790;BME280;37287;47.554;7.844;2024-02-14T00:24:58;98459.63;;;2.81;100.00
50790;BME280;37287;47.554;7.844;2024-02-14T00:27:24;98461.06;;;2.79;100.00
50790;BME280;37287;47.554;7.844;2024-02-14T00:29:53;98463.13;;;2.82;100.00
50790;BME280;37287;47.554;7.844;2024-02-14T00:32:21;98462.94;;;2.78;100.00
50790;BME280;37287;47.554;7.844;2024-02-14T00:34:48;98470.63;;;2.71;100.00
50790;BME280;37287;47.554;7.844;2024-02-14T00:37:16;98468.56;;;2.68;100.00
50790;BME280;37287;47.554;7.844;2024-02-14T00:39:43;98469.00;;;2.61;100.00
50790;BME280;37287;47.554;7.844;2024-02-14T00:42:10;98479.53;;;2.57;100.00
50790;BME280;37287;47.554;7.844;2024-02-14T00:44:37;98479.53;;;2.57;100.00
50790;BME280;37287;47.554;7.844;2024-02-14T00:47:04;98469.75;;;2.53;100.00
50790;BME280;37287;47.554;7.844;2024-02-14T00:49:34;98478.72;;;2.57;100.00
50790;BME280;37287;47.554;7.844;2024-02-14T00:52:01;98470.06;;;2.51;100.00
50790;BME280;37287;47.554;7.844;2024-02-14T00:54:28;98471.28;;;2.45;100.00
50790;BME280;37287;47.554;7.844;2024-02-14T00:56:55;98477.28;;;2.51;100.00
50790;BME280;37287;47.554;7.844;2024-02-14T00:59:21;98477.59;;;2.49;100.00
50790;BME280;37287;47.554;7.844;2024-02-14T01:01:48;98481.56;;;2.52;100.00
50790;BME280;37287;47.554;7.844;2024-02-14T01:04:15;98483.31;;;2.56;100.00
50790;BME280;37287;47.554;7.844;2024-02-14T01:06:41;98477.19;;;2.56;100.00
50790;BME280;37287;47.554;7.844;2024-02-14T01:09:09;98475.94;;;2.62;100.00
50790;BME280;37287;47.554;7.844;2024-02-14T01:11:35;98482.25;;;2.66;100.00
50790;BME280;37287;47.554;7.844;2024-02-14T01:14:05;98478.72;;;2.57;100.00
50790;BME280;37287;47.554;7.844;2024-02-14T01:16:31;98483.13;;;2.53;100.00
50790;BME280;37287;47.554;7.844;2024-02-14T01:18:58;98487.22;;;2.50;100.00
50790;BME280;37287;47.554;7.844;2024-02-14T01:21:25;98481.25;;;2.53;100.00
50790;BME280;37287;47.554;7.844;2024-02-14T01:23:51;98478.91;;;2.61;100.00
50790;BME280;37287;47.554;7.844;2024-02-14T01:26:19;98485.66;;;2.58;100.00
50790;BME280;37287;47.554;7.844;2024-02-14T01:28:47;98485.34;;;2.60;100.00
50790;BME280;37287;47.554;7.844;2024-02-14T01:31:15;98479.88;;;2.65;100.00
50790;BME280;37287;47.554;7.844;2024-02-14T01:33:42;98473.38;;;2.57;100.00
50790;BME280;37287;47.554;7.844;2024-02-14T01:36:10;98478.22;;;2.46;100.00
50790;BME280;37287;47.554;7.844;2024-02-14T01:38:36;98480.72;;;2.43;100.00
50790;BME280;37287;47.554;7.844;2024-02-14T01:41:03;98480.25;;;2.40;100.00
50790;BME280;37287;47.554;7.844;2024-02-14T01:43:30;98478.16;;;2.37;100.00
50790;BME280;37287;47.554;7.844;2024-02-14T01:46:04;98483.38;;;2.43;100.00
50790;BME280;37287;47.554;7.844;2024-02-14T01:48:31;98481.50;;;2.43;100.00
50790;BME280;37287;47.554;7.844;2024-02-14T01:51:01;98477.72;;;2.44;100.00
50790;BME280;37287;47.554;7.844;2024-02-14T01:53:29;98483.22;;;2.39;100.00
50790;BME280;37287;47.554;7.844;2024-02-14T01:55:58;98476.41;;;2.33;100.00
50790;BME280;37287;47.554;7.844;2024-02-14T01:58:26;98477.69;;;2.35;100.00
50790;BME280;37287;47.554;7.844;2024-02-14T02:00:53;98474.81;;;2.32;100.00
50790;BME280;37287;47.554;7.844;2024-02-14T02:03:24;98470.59;;;2.31;100.00
50790;BME280;37287;47.554;7.844;2024-02-14T02:05:55;98470.59;;;2.31;100.00
50790;BME280;37287;47.554;7.844;2024-02-14T02:08:22;98468.53;;;2.28;100.00
50790;BME280;37287;47.554;7.844;2024-02-14T02:10:49;98464.75;;;2.29;100.00
50790;BME280;37287;47.554;7.844;2024-02-14T02:13:16;98459.72;;;2.27;100.00
50790;BME280;37287;47.554;7.844;2024-02-14T02:15:43;98454.38;;;2.27;100.00
50790;BME280;37287;47.554;7.844;2024-02-14T02:18:12;98452.97;;;2.30;100.00
50790;BME280;37287;47.554;7.844;2024-02-14T02:20:40;98462.44;;;2.36;100.00
50790;BME280;37287;47.554;7.844;2024-02-14T02:23:13;98458.56;;;2.42;100.00
50790;BME280;37287;47.554;7.844;2024-02-14T02:25:43;98459.97;;;2.48;100.00
50790;BME280;37287;47.554;7.844;2024-02-14T02:28:10;98456.69;;;2.51;100.00
50790;BME280;37287;47.554;7.844;2024-02-14T02:30:37;98441.31;;;2.57;100.00
50790;BME280;37287;47.554;7.844;2024-02-14T02:33:04;98446.03;;;2.60;100.00
50790;BME280;37287;47.554;7.844;2024-02-14T02:35:33;98443.53;;;2.64;100.00
50790;BME280;37287;47.554;7.844;2024-02-14T02:38:00;98446.41;;;2.67;100.00
50790;BME280;37287;47.554;7.844;2024-02-14T02:40:27;98440.13;;;2.72;100.00
50790;BME280;37287;47.554;7.844;2024-02-14T02:42:54;98445.31;;;2.77;100.00
50790;BME280;37287;47.554;7.844;2024-02-14T02:45:21;98453.81;;;2.79;100.00
50790;BME280;37287;47.554;7.844;2024-02-14T02:47:48;98452.44;;;2.82;100.00
50790;BME280;37287;47.554;7.844;2024-02-14T02:50:18;98448.50;;;2.88;100.00
50790;BME280;37287;47.554;7.844;2024-02-14T02:52:46;98452.44;;;2.90;100.00
50790;BME280;37287;47.554;7.844;2024-02-14T02:55:13;98456.72;;;2.91;100.00
50790;BME280;37287;47.554;7.844;2024-02-14T02:57:44;98456.09;;;2.95;100.00
50790;BME280;37287;47.554;7.844;2024-02-14T03:00:12;98462.22;;;2.95;100.00
50790;BME280;37287;47.554;7.844;2024-02-14T03:02:40;98455.16;;;2.99;100.00
50790;BME280;37287;47.554;7.844;2024-02-14T03:05:11;98456.41;;;3.02;100.00
50790;BME280;37287;47.554;7.844;2024-02-14T03:07:44;98459.56;;;3.04;100.00
50790;BME280;37287;47.554;7.844;2024-02-14T03:10:11;98458.31;;;3.01;100.00
50790;BME280;37287;47.554;7.844;2024-02-14T03:12:41;98460.81;;;2.98;100.00
50790;BME280;37287;47.554;7.844;2024-02-14T03:15:08;98450.41;;;2.96;100.00
50790;BME280;37287;47.554;7.844;2024-02-14T03:17:37;98455.28;;;2.94;100.00
50790;BME280;37287;47.554;7.844;2024-02-14T03:20:04;98449.78;;;2.90;100.00
50790;BME280;37287;47.554;7.844;2024-02-14T03:22:44;98457.16;;;2.85;100.00
50790;BME280;37287;47.554;7.844;2024-02-14T03:25:18;98459.31;;;2.83;100.00
50790;BME280;37287;47.554;7.844;2024-02-14T03:27:45;98455.56;;;2.84;100.00
50790;BME280;37287;47.554;7.844;2024-02-14T03:30:14;98459.50;;;2.86;100.00
50790;BME280;37287;47.554;7.844;2024-02-14T03:32:45;98448.03;;;2.86;100.00
50790;BME280;37287;47.554;7.844;2024-02-14T03:35:12;98453.53;;;2.89;100.00
50790;BME280;37287;47.554;7.844;2024-02-14T03:37:42;98460.34;;;2.96;100.00
50790;BME280;37287;47.554;7.844;2024-02-14T03:40:10;98464.09;;;2.95;100.00
50790;BME280;37287;47.554;7.844;2024-02-14T03:42:38;98455.59;;;2.92;100.00
50790;BME280;37287;47.554;7.844;2024-02-14T03:45:08;98464.09;;;2.95;100.00
50790;BME280;37287;47.554;7.844;2024-02-14T03:47:35;98463.00;;;2.96;100.00
50790;BME280;37287;47.554;7.844;2024-02-14T03:50:07;98459.06;;;2.93;100.00
50790;BME280;37287;47.554;7.844;2024-02-14T03:52:34;98450.72;;;2.95;100.00
50790;BME280;37287;47.554;7.844;2024-02-14T03:55:02;98443.94;;;2.88;100.00
50790;BME280;37287;47.554;7.844;2024-02-14T03:57:29;98454.94;;;2.87;100.00
50790;BME280;37287;47.554;7.844;2024-02-14T03:59:59;98465.19;;;2.93;100.00
50790;BME280;37287;47.554;7.844;2024-02-14T04:02:27;98470.41;;;2.99;100.00
50790;BME280;37287;47.554;7.844;2024-02-14T04:04:55;98469.59;;;2.98;100.00
50790;BME280;37287;47.554;7.844;2024-02-14T04:07:22;98473.22;;;2.93;100.00
50790;BME280;37287;47.554;7.844;2024-02-14T04:09:48;98478.09;;;2.91;100.00
50790;BME280;37287;47.554;7.844;2024-02-14T04:12:15;98484.84;;;2.89;100.00
50790;BME280;37287;47.554;7.844;2024-02-14T04:14:42;98489.41;;;2.88;100.00
50790;BME280;37287;47.554;7.844;2024-02-14T04:17:09;98491.78;;;2.90;100.00
50790;BME280;37287;47.554;7.844;2024-02-14T04:19:38;98488.00;;;2.91;100.00
50790;BME280;37287;47.554;7.844;2024-02-14T04:22:05;98491.94;;;2.93;100.00
50790;BME280;37287;47.554;7.844;2024-02-14T04:24:35;98493.84;;;2.93;100.00
50790;BME280;37287;47.554;7.844;2024-02-14T04:27:02;98499.66;;;2.95;100.00
50790;BME280;37287;47.554;7.844;2024-02-14T04:29:31;98500.31;;;3.01;100.00
50790;BME280;37287;47.554;7.844;2024-02-14T04:32:01;98487.56;;;2.98;100.00
50790;BME280;37287;47.554;7.844;2024-02-14T04:34:27;98492.91;;;2.98;100.00
50790;BME280;37287;47.554;7.844;2024-02-14T04:36:54;98488.97;;;2.95;100.00
50790;BME280;37287;47.554;7.844;2024-02-14T04:39:21;98486.59;;;2.93;100.00
50790;BME280;37287;47.554;7.844;2024-02-14T04:41:48;98472.75;;;2.91;100.00
50790;BME280;37287;47.554;7.844;2024-02-14T04:44:27;98472.25;;;2.89;100.00
50790;BME280;37287;47.554;7.844;2024-02-14T04:46:54;98478.09;;;2.91;100.00
50790;BME280;37287;47.554;7.844;2024-02-14T04:49:22;98489.59;;;2.92;100.00
50790;BME280;37287;47.554;7.844;2024-02-14T04:51:49;98491.31;;;2.97;100.00
50790;BME280;37287;47.554;7.844;2024-02-14T04:54:17;98496.34;;;2.98;100.00
50790;BME280;37287;47.554;7.844;2024-02-14T04:56:43;98497.00;;;3.04;100.00
50790;BME280;37287;47.554;7.844;2024-02-14T04:59:12;98497.81;;;3.04;100.00
50790;BME280;37287;47.554;7.844;2024-02-14T05:01:39;98481.75;;;3.04;100.00
50790;BME280;37287;47.554;7.844;2024-02-14T05:04:06;98487.88;;;3.05;100.00
50790;BME280;37287;47.554;7.844;2024-02-14T05:06:33;98486.16;;;3.09;100.00
50790;BME280;37287;47.554;7.844;2024-02-14T05:09:00;98485.72;;;3.07;100.00
50790;BME280;37287;47.554;7.844;2024-02-14T05:11:27;98488.38;;;3.07;100.00
50790;BME280;37287;47.554;7.844;2024-02-14T05:13:54;98487.25;;;3.08;100.00
50790;BME280;37287;47.554;7.844;2024-02-14T05:16:21;98504.28;;;3.12;100.00
50790;BME280;37287;47.554;7.844;2024-02-14T05:18:47;98507.44;;;3.14;100.00
50790;BME280;37287;47.554;7.844;2024-02-14T05:21:15;98507.59;;;3.18;100.00
50790;BME280;37287;47.554;7.844;2024-02-14T05:23:42;98513.44;;;3.20;100.00
50790;BME280;37287;47.554;7.844;2024-02-14T05:26:12;98521.47;;;3.20;100.00
50790;BME280;37287;47.554;7.844;2024-02-14T05:28:38;98510.28;;;3.18;100.00
50790;BME280;37287;47.554;7.844;2024-02-14T05:31:05;98504.91;;;3.18;100.00
50790;BME280;37287;47.554;7.844;2024-02-14T05:33:32;98512.16;;;3.17;100.00
50790;BME280;37287;47.554;7.844;2024-02-14T05:35:59;98509.97;;;3.19;100.00
50790;BME280;37287;47.554;7.844;2024-02-14T05:38:26;98510.75;;;3.20;100.00
50790;BME280;37287;47.554;7.844;2024-02-14T05:40:53;98500.84;;;3.20;100.00
50790;BME280;37287;47.554;7.844;2024-02-14T05:43:20;98499.75;;;3.21;100.00
50790;BME280;37287;47.554;7.844;2024-02-14T05:45:47;98503.19;;;3.22;100.00
50790;BME280;37287;47.554;7.844;2024-02-14T05:48:13;98510.13;;;3.23;100.00
50790;BME280;37287;47.554;7.844;2024-02-14T05:50:41;98507.94;;;3.25;100.00
50790;BME280;37287;47.554;7.844;2024-02-14T05:53:08;98515.63;;;3.26;100.00
50790;BME280;37287;47.554;7.844;2024-02-14T05:55:35;98510.78;;;3.29;100.00
50790;BME280;37287;47.554;7.844;2024-02-14T05:58:01;98512.84;;;3.32;100.00
50790;BME280;37287;47.554;7.844;2024-02-14T06:00:28;98515.69;;;3.35;100.00
50790;BME280;37287;47.554;7.844;2024-02-14T06:02:55;98517.25;;;3.36;100.00
50790;BME280;37287;47.554;7.844;2024-02-14T06:05:22;98510.00;;;3.37;100.00
50790;BME280;37287;47.554;7.844;2024-02-14T06:07:49;98504.66;;;3.37;100.00
50790;BME280;37287;47.554;7.844;2024-02-14T06:10:17;98508.44;;;3.36;100.00
50790;BME280;37287;47.554;7.844;2024-02-14T06:12:44;98503.84;;;3.36;100.00
50790;BME280;37287;47.554;7.844;2024-02-14T06:15:12;98499.31;;;3.37;100.00
50790;BME280;37287;47.554;7.844;2024-02-14T06:17:39;98496.63;;;3.37;100.00
50790;BME280;37287;47.554;7.844;2024-02-14T06:20:06;98491.28;;;3.37;100.00
50790;BME280;37287;47.554;7.844;2024-02-14T06:22:34;98493.97;;;3.37;100.00
50790;BME280;37287;47.554;7.844;2024-02-14T06:25:13;98507.81;;;3.39;100.00
50790;BME280;37287;47.554;7.844;2024-02-14T06:27:40;98512.53;;;3.42;100.00
50790;BME280;37287;47.554;7.844;2024-02-14T06:30:07;98516.00;;;3.42;100.00
50790;BME280;37287;47.554;7.844;2024-02-14T06:32:35;98509.06;;;3.41;100.00
50790;BME280;37287;47.554;7.844;2024-02-14T06:35:02;98516.31;;;3.41;100.00
50790;BME280;37287;47.554;7.844;2024-02-14T06:37:30;98517.72;;;3.38;100.00
50790;BME280;37287;47.554;7.844;2024-02-14T06:40:10;98509.69;;;3.38;100.00
50790;BME280;37287;47.554;7.844;2024-02-14T06:42:37;98509.69;;;3.38;100.00
50790;BME280;37287;47.554;7.844;2024-02-14T06:45:05;98495.50;;;3.38;100.00
50790;BME280;37287;47.554;7.844;2024-02-14T06:47:33;98498.19;;;3.38;100.00
50790;BME280;37287;47.554;7.844;2024-02-14T06:50:00;98495.84;;;3.36;100.00
50790;BME280;37287;47.554;7.844;2024-02-14T06:52:26;98497.72;;;3.36;100.00
50790;BME280;37287;47.554;7.844;2024-02-14T06:54:53;98494.59;;;3.34;100.00
50790;BME280;37287;47.554;7.844;2024-02-14T06:57:20;98505.13;;;3.30;100.00
50790;BME280;37287;47.554;7.844;2024-02-14T06:59:47;98507.47;;;3.32;100.00
50790;BME280;37287;47.554;7.844;2024-02-14T07:02:13;98518.03;;;3.37;100.00
50790;BME280;37287;47.554;7.844;2024-02-14T07:04:40;98521.06;;;3.44;100.00
50790;BME280;37287;47.554;7.844;2024-02-14T07:07:07;98527.19;;;3.44;100.00
50790;BME280;37287;47.554;7.844;2024-02-14T07:09:34;98522.63;;;3.45;100.00
50790;BME280;37287;47.554;7.844;2024-02-14T07:12:05;98525.59;;;3.43;100.00
50790;BME280;37287;47.554;7.844;2024-02-14T07:14:32;98532.69;;;3.39;100.00
50790;BME280;37287;47.554;7.844;2024-02-14T07:16:59;98531.75;;;3.44;100.00
50790;BME280;37287;47.554;7.844;2024-02-14T07:19:25;98529.22;;;3.48;100.00
50790;BME280;37287;47.554;7.844;2024-02-14T07:21:52;98529.88;;;3.53;100.00
50790;BME280;37287;47.554;7.844;2024-02-14T07:24:19;98530.81;;;3.57;100.00
50790;BME280;37287;47.554;7.844;2024-02-14T07:26:46;98528.00;;;3.63;100.00
50790;BME280;37287;47.554;7.844;2024-02-14T07:29:12;98519.97;;;3.71;100.00
50790;BME280;37287;47.554;7.844;2024-02-14T07:31:39;98527.25;;;3.79;100.00
50790;BME280;37287;47.554;7.844;2024-02-14T07:34:06;98520.47;;;3.82;100.00
50790;BME280;37287;47.554;7.844;2024-02-14T07:36:35;98525.66;;;3.87;100.00
50790;BME280;37287;47.554;7.844;2024-02-14T07:39:02;98528.97;;;3.93;100.00
50790;BME280;37287;47.554;7.844;2024-02-14T07:41:30;98529.78;;;3.93;100.00
50790;BME280;37287;47.554;7.844;2024-02-14T07:43:57;98525.50;;;3.92;100.00
50790;BME280;37287;47.554;7.844;2024-02-14T07:46:24;98529.00;;;4.02;100.00
50790;BME280;37287;47.554;7.844;2024-02-14T07:48:53;98526.63;;;4.09;100.00
50790;BME280;37287;47.554;7.844;2024-02-14T07:51:20;98528.03;;;4.15;100.00
50790;BME280;37287;47.554;7.844;2024-02-14T07:53:48;98533.69;;;4.22;100.00
50790;BME280;37287;47.554;7.844;2024-02-14T07:56:17;98536.69;;;4.21;100.00
50790;BME280;37287;47.554;7.844;2024-02-14T07:58:44;98539.38;;;4.21;100.00
50790;BME280;37287;47.554;7.844;2024-02-14T08:01:11;98547.09;;;4.22;100.00
50790;BME280;37287;47.554;7.844;2024-02-14T08:03:40;98544.91;;;4.24;100.00
50790;BME280;37287;47.554;7.844;2024-02-14T08:06:07;98541.09;;;4.25;100.00
50790;BME280;37287;47.554;7.844;2024-02-14T08:08:34;98535.28;;;4.23;100.00
50790;BME280;37287;47.554;7.844;2024-02-14T08:11:01;98538.72;;;4.24;100.00
50790;BME280;37287;47.554;7.844;2024-02-14T08:13:28;98536.06;;;4.24;100.00
50790;BME280;37287;47.554;7.844;2024-02-14T08:15:55;98537.47;;;4.21;100.00
50790;BME280;37287;47.554;7.844;2024-02-14T08:18:22;98546.00;;;4.23;100.00
50790;BME280;37287;47.554;7.844;2024-02-14T08:20:50;98541.09;;;4.25;100.00
50790;BME280;37287;47.554;7.844;2024-02-14T08:23:16;98552.31;;;4.27;100.00
50790;BME280;37287;47.554;7.844;2024-02-14T08:25:43;98546.31;;;4.30;100.00
50790;BME280;37287;47.554;7.844;2024-02-14T08:28:10;98550.69;;;4.35;100.00
50790;BME280;37287;47.554;7.844;2024-02-14T08:30:36;98547.56;;;4.42;100.00
50790;BME280;37287;47.554;7.844;2024-02-14T08:33:04;98549.75;;;4.48;100.00
50790;BME280;37287;47.554;7.844;2024-02-14T08:35:31;98558.09;;;4.56;100.00
50790;BME280;37287;47.554;7.844;2024-02-14T08:38:07;98560.63;;;4.61;100.00
50790;BME280;37287;47.554;7.844;2024-02-14T08:40:35;98567.72;;;4.65;100.00
50790;BME280;37287;47.554;7.844;2024-02-14T08:43:01;98574.00;;;4.70;100.00
50790;BME280;37287;47.554;7.844;2024-02-14T08:45:28;98568.31;;;4.71;100.00
50790;BME280;37287;47.554;7.844;2024-02-14T08:47:56;98567.34;;;4.76;100.00
50790;BME280;37287;47.554;7.844;2024-02-14T08:50:23;98575.25;;;4.81;100.00
50790;BME280;37287;47.554;7.844;2024-02-14T08:52:50;98581.56;;;4.85;100.00
50790;BME280;37287;47.554;7.844;2024-02-14T08:55:17;98581.69;;;4.89;100.00
50790;BME280;37287;47.554;7.844;2024-02-14T08:57:45;98579.16;;;4.92;100.00
50790;BME280;37287;47.554;7.844;2024-02-14T09:00:17;98582.78;;;4.96;100.00
50790;BME280;37287;47.554;7.844;2024-02-14T09:02:47;98579.25;;;5.05;100.00
50790;BME280;37287;47.554;7.844;2024-02-14T09:05:14;98577.78;;;5.16;100.00
50790;BME280;37287;47.554;7.844;2024-02-14T09:07:41;98573.19;;;5.25;100.00
50790;BME280;37287;47.554;7.844;2024-02-14T09:10:08;98583.13;;;5.33;100.00
50790;BME280;37287;47.554;7.844;2024-02-14T09:12:37;98591.00;;;5.39;100.00
50790;BME280;37287;47.554;7.844;2024-02-14T09:15:04;98589.22;;;5.43;100.00
50790;BME280;37287;47.554;7.844;2024-02-14T09:17:32;98593.16;;;5.45;100.00
50790;BME280;37287;47.554;7.844;2024-02-14T09:19:59;98585.69;;;5.51;100.00
50790;BME280;37287;47.554;7.844;2024-02-14T09:22:26;98581.53;;;5.62;100.00
50790;BME280;37287;47.554;7.844;2024-02-14T09:24:53;98571.31;;;5.77;100.00
50790;BME280;37287;47.554;7.844;2024-02-14T09:27:20;98574.91;;;5.90;100.00
50790;BME280;37287;47.554;7.844;2024-02-14T09:29:46;98580.69;;;6.00;100.00
50790;BME280;37287;47.554;7.844;2024-02-14T09:32:13;98581.09;;;6.11;100.00
50790;BME280;37287;47.554;7.844;2024-02-14T09:34:40;98583.97;;;6.27;100.00
50790;BME280;37287;47.554;7.844;2024-02-14T09:37:07;98573.47;;;6.34;100.00
50790;BME280;37287;47.554;7.844;2024-02-14T09:39:34;98574.63;;;6.46;100.00
50790;BME280;37287;47.554;7.844;2024-02-14T09:42:08;98573.97;;;6.49;100.00
50790;BME280;37287;47.554;7.844;2024-02-14T09:44:37;98577.22;;;6.54;100.00
50790;BME280;37287;47.554;7.844;2024-02-14T09:47:05;98579.28;;;6.58;100.00
50790;BME280;37287;47.554;7.844;2024-02-14T09:49:32;98578.38;;;6.66;100.00
50790;BME280;37287;47.554;7.844;2024-02-14T09:52:02;98578.09;;;6.67;100.00
50790;BME280;37287;47.554;7.844;2024-02-14T09:54:31;98575.84;;;6.69;100.00
50790;BME280;37287;47.554;7.844;2024-02-14T09:56:59;98576.75;;;6.74;100.00
50790;BME280;37287;47.554;7.844;2024-02-14T09:59:25;98581.47;;;6.77;100.00
50790;BME280;37287;47.554;7.844;2024-02-14T10:01:52;98587.19;;;6.75;100.00
50790;BME280;37287;47.554;7.844;2024-02-14T10:04:19;98580.34;;;6.78;100.00
50790;BME280;37287;47.554;7.844;2024-02-14T10:06:51;98582.50;;;6.84;100.00
50790;BME280;37287;47.554;7.844;2024-02-14T10:09:21;98586.88;;;6.89;100.00
50790;BME280;37287;47.554;7.844;2024-02-14T10:11:49;98579.25;;;6.91;100.00
50790;BME280;37287;47.554;7.844;2024-02-14T10:14:16;98589.38;;;6.94;100.00
50790;BME280;37287;47.554;7.844;2024-02-14T10:16:43;98590.91;;;6.95;100.00
50790;BME280;37287;47.554;7.844;2024-02-14T10:19:16;98587.25;;;7.00;100.00
50790;BME280;37287;47.554;7.844;2024-02-14T10:21:55;98595.91;;;7.05;100.00
50790;BME280;37287;47.554;7.844;2024-02-14T10:24:25;98599.03;;;7.08;100.00
50790;BME280;37287;47.554;7.844;2024-02-14T10:26:51;98590.50;;;7.18;100.00
50790;BME280;37287;47.554;7.844;2024-02-14T10:29:20;98585.59;;;7.20;100.00
50790;BME280;37287;47.554;7.844;2024-02-14T10:31:49;98595.69;;;7.23;100.00
50790;BME280;37287;47.554;7.844;2024-02-14T10:34:17;98591.28;;;7.31;100.00
50790;BME280;37287;47.554;7.844;2024-02-14T10:37:09;98598.84;;;7.50;100.00
50790;BME280;37287;47.554;7.844;2024-02-14T10:39:36;98588.28;;;7.69;100.00
50790;BME280;37287;47.554;7.844;2024-02-14T10:42:04;98587.69;;;7.88;100.00
50790;BME280;37287;47.554;7.844;2024-02-14T10:44:34;98584.41;;;8.07;100.00
50790;BME280;37287;47.554;7.844;2024-02-14T10:47:02;98581.75;;;8.23;100.00
50790;BME280;37287;47.554;7.844;2024-02-14T10:49:35;98576.88;;;8.41;100.00
50790;BME280;37287;47.554;7.844;2024-02-14T10:52:05;98583.47;;;8.56;100.00
50790;BME280;37287;47.554;7.844;2024-02-14T10:54:35;98584.94;;;8.54;100.00
50790;BME280;37287;47.554;7.844;2024-02-14T10:57:05;98587.50;;;8.63;100.00
50790;BME280;37287;47.554;7.844;2024-02-14T10:59:44;98584.91;;;8.82;100.00
50790;BME280;37287;47.554;7.844;2024-02-14T11:02:13;98581.09;;;8.99;100.00
50790;BME280;37287;47.554;7.844;2024-02-14T11:04:40;98579.25;;;9.03;100.00
50790;BME280;37287;47.554;7.844;2024-02-14T11:07:10;98576.50;;;9.16;100.00
50790;BME280;37287;47.554;7.844;2024-02-14T11:09:37;98577.97;;;9.29;100.00
50790;BME280;37287;47.554;7.844;2024-02-14T11:12:08;98581.72;;;9.40;100.00
50790;BME280;37287;47.554;7.844;2024-02-14T11:14:36;98572.63;;;9.49;100.00
50790;BME280;37287;47.554;7.844;2024-02-14T11:17:09;98580.56;;;9.57;100.00
50790;BME280;37287;47.554;7.844;2024-02-14T11:19:36;98579.56;;;9.66;100.00
50790;BME280;37287;47.554;7.844;2024-02-14T11:22:17;98591.78;;;9.75;100.00
50790;BME280;37287;47.554;7.844;2024-02-14T11:24:48;98588.69;;;9.93;100.00
50790;BME280;37287;47.554;7.844;2024-02-14T11:27:17;98583.59;;;10.07;100.00
50790;BME280;37287;47.554;7.844;2024-02-14T11:30:00;98584.22;;;10.20;100.00
50790;BME280;37287;47.554;7.844;2024-02-14T11:32:27;98578.47;;;10.22;100.00
50790;BME280;37287;47.554;7.844;2024-02-14T11:34:55;98582.16;;;10.33;100.00
50790;BME280;37287;47.554;7.844;2024-02-14T11:37:31;98588.56;;;10.41;100.00
50790;BME280;37287;47.554;7.844;2024-02-14T11:39:58;98589.81;;;10.47;100.00
50790;BME280;37287;47.554;7.844;2024-02-14T11:42:25;98588.59;;;10.44;100.00
50790;BME280;37287;47.554;7.844;2024-02-14T11:44:53;98580.00;;;10.39;100.00
50790;BME280;37287;47.554;7.844;2024-02-14T11:47:23;98585.03;;;10.40;100.00
50790;BME280;37287;47.554;7.844;2024-02-14T11:49:49;98591.75;;;10.46;100.00
50790;BME280;37287;47.554;7.844;2024-02-14T11:52:17;98589.69;;;10.59;100.00
50790;BME280;37287;47.554;7.844;2024-02-14T11:54:47;98594.09;;;10.68;100.00
50790;BME280;37287;47.554;7.844;2024-02-14T11:57:18;98587.66;;;10.76;100.00
50790;BME280;37287;47.554;7.844;2024-02-14T11:59:48;98587.72;;;10.79;100.00
50790;BME280;37287;47.554;7.844;2024-02-14T12:02:17;98577.00;;;10.87;100.00
50790;BME280;37287;47.554;7.844;2024-02-14T12:04:47;98579.84;;;10.94;100.00
50790;BME280;37287;47.554;7.844;2024-02-14T12:07:17;98580.34;;;10.99;100.00
50790;BME280;37287;47.554;7.844;2024-02-14T12:09:45;98576.38;;;10.93;100.00
50790;BME280;37287;47.554;7.844;2024-02-14T12:12:12;98578.72;;;10.95;100.00
50790;BME280;37287;47.554;7.844;2024-02-14T12:14:39;98568.00;;;11.02;100.00
50790;BME280;37287;47.554;7.844;2024-02-14T12:17:06;98570.09;;;11.12;100.00
50790;BME280;37287;47.554;7.844;2024-02-14T12:19:33;98565.09;;;11.14;100.00
50790;BME280;37287;47.554;7.844;2024-02-14T12:22:02;98562.88;;;11.20;100.00
50790;BME280;37287;47.554;7.844;2024-02-14T12:24:29;98562.56;;;11.25;100.00
50790;BME280;37287;47.554;7.844;2024-02-14T12:26:56;98561.00;;;11.24;100.00
50790;BME280;37287;47.554;7.844;2024-02-14T12:29:23;98562.31;;;11.34;100.00
50790;BME280;37287;47.554;7.844;2024-02-14T12:31:50;98553.03;;;11.35;100.00
50790;BME280;37287;47.554;7.844;2024-02-14T12:34:17;98552.31;;;11.38;100.00
50790;BME280;37287;47.554;7.844;2024-02-14T12:36:51;98546.16;;;11.41;100.00
50790;BME280;37287;47.554;7.844;2024-02-14T12:39:17;98546.94;;;11.42;100.00
50790;BME280;37287;47.554;7.844;2024-02-14T12:41:44;98540.75;;;11.41;100.00
50790;BME280;37287;47.554;7.844;2024-02-14T12:44:11;98541.88;;;11.40;100.00
50790;BME280;37287;47.554;7.844;2024-02-14T12:46:38;98546.16;;;11.41;100.00
50790;BME280;37287;47.554;7.844;2024-02-14T12:49:05;98548.56;;;11.46;100.00
50790;BME280;37287;47.554;7.844;2024-02-14T12:51:32;98549.38;;;11.50;100.00
50790;BME280;37287;47.554;7.844;2024-02-14T12:53:59;98542.81;;;11.51;100.00
50790;BME280;37287;47.554;7.844;2024-02-14T12:56:26;98550.56;;;11.49;100.00
50790;BME280;37287;47.554;7.844;2024-02-14T12:58:53;98542.00;;;11.47;100.00
50790;BME280;37287;47.554;7.844;2024-02-14T13:01:20;98532.28;;;11.46;100.00
50790;BME280;37287;47.554;7.844;2024-02-14T13:03:47;98527.66;;;11.47;100.00